sensor_id;sensor_type;location;lat;lon;timestamp;temperature;humidity
4687;DHT22;2357;47.316;-1.348;2023-07-31T00:02:16;19.20;99.90
4687;DHT22;2357;47.316;-1.348;2023-07-31T00:04:42;19.10;99.90
4687;DHT22;2357;47.316;-1.348;2023-07-31T00:07:07;19.20;99.90
4687;DHT22;2357;47.316;-1.348;2023-07-31T00:09:33;19.20;99.90
4687;DHT22;2357;47.316;-1.348;2023-07-31T00:11:59;19.20;99.90
4687;DHT22;2357;47.316;-1.348;2023-07-31T00:14:25;19.20;99.90
4687;DHT22;2357;47.316;-1.348;2023-07-31T00:16:51;19.20;99.90
4687;DHT22;2357;47.316;-1.348;2023-07-31T00:19:16;19.10;99.90
4687;DHT22;2357;47.316;-1.348;2023-07-31T00:21:42;19.20;99.90
4687;DHT22;2357;47.316;-1.348;2023-07-31T00:24:07;19.10;99.90
4687;DHT22;2357;47.316;-1.348;2023-07-31T00:26:33;19.20;99.90
4687;DHT22;2357;47.316;-1.348;2023-07-31T00:28:58;19.10;99.90
4687;DHT22;2357;47.316;-1.348;2023-07-31T00:31:24;19.00;99.90
4687;DHT22;2357;47.316;-1.348;2023-07-31T00:33:50;19.00;99.90
4687;DHT22;2357;47.316;-1.348;2023-07-31T00:36:15;19.00;99.90
4687;DHT22;2357;47.316;-1.348;2023-07-31T00:38:41;19.00;99.90
4687;DHT22;2357;47.316;-1.348;2023-07-31T00:41:06;19.00;99.90
4687;DHT22;2357;47.316;-1.348;2023-07-31T00:43:32;19.00;99.90
4687;DHT22;2357;47.316;-1.348;2023-07-31T00:45:58;19.00;99.90
4687;DHT22;2357;47.316;-1.348;2023-07-31T00:48:23;18.90;99.90
4687;DHT22;2357;47.316;-1.348;2023-07-31T00:50:50;19.00;99.90
4687;DHT22;2357;47.316;-1.348;2023-07-31T00:53:15;19.00;99.90
4687;DHT22;2357;47.316;-1.348;2023-07-31T00:55:42;19.10;99.90
4687;DHT22;2357;47.316;-1.348;2023-07-31T00:58:08;19.00;99.90
4687;DHT22;2357;47.316;-1.348;2023-07-31T01:00:33;19.10;99.90
4687;DHT22;2357;47.316;-1.348;2023-07-31T01:02:59;18.90;99.90
4687;DHT22;2357;47.316;-1.348;2023-07-31T01:08:24;18.90;99.90
4687;DHT22;2357;47.316;-1.348;2023-07-31T01:11:02;18.90;99.90
4687;DHT22;2357;47.316;-1.348;2023-07-31T01:13:31;18.80;99.90
4687;DHT22;2357;47.316;-1.348;2023-07-31T01:15:57;18.90;99.90
4687;DHT22;2357;47.316;-1.348;2023-07-31T01:18:22;18.80;99.90
4687;DHT22;2357;47.316;-1.348;2023-07-31T01:20:54;18.80;99.90
4687;DHT22;2357;47.316;-1.348;2023-07-31T01:28:44;18.80;99.90
4687;DHT22;2357;47.316;-1.348;2023-07-31T01:31:16;18.80;99.90
4687;DHT22;2357;47.316;-1.348;2023-07-31T01:33:42;18.70;99.90
4687;DHT22;2357;47.316;-1.348;2023-07-31T01:36:07;18.80;99.90
4687;DHT22;2357;47.316;-1.348;2023-07-31T01:38:33;18.70;99.90
4687;DHT22;2357;47.316;-1.348;2023-07-31T01:40:59;18.70;99.90
4687;DHT22;2357;47.316;-1.348;2023-07-31T01:43:24;18.70;99.90
4687;DHT22;2357;47.316;-1.348;2023-07-31T01:45:50;18.60;99.90
4687;DHT22;2357;47.316;-1.348;2023-07-31T01:48:16;18.70;99.90
4687;DHT22;2357;47.316;-1.348;2023-07-31T01:50:41;18.70;99.90
4687;DHT22;2357;47.316;-1.348;2023-07-31T01:53:07;18.70;99.90
4687;DHT22;2357;47.316;-1.348;2023-07-31T01:55:32;18.80;99.90
4687;DHT22;2357;47.316;-1.348;2023-07-31T01:57:58;18.80;99.90
4687;DHT22;2357;47.316;-1.348;2023-07-31T02:00:24;18.70;99.90
4687;DHT22;2357;47.316;-1.348;2023-07-31T02:02:49;18.70;99.90
4687;DHT22;2357;47.316;-1.348;2023-07-31T02:05:15;18.60;99.90
4687;DHT22;2357;47.316;-1.348;2023-07-31T02:07:40;18.70;99.90
4687;DHT22;2357;47.316;-1.348;2023-07-31T02:10:06;18.50;99.90
4687;DHT22;2357;47.316;-1.348;2023-07-31T02:12:32;18.60;99.90
4687;DHT22;2357;47.316;-1.348;2023-07-31T02:14:59;18.50;99.90
4687;DHT22;2357;47.316;-1.348;2023-07-31T02:17:24;18.50;99.90
4687;DHT22;2357;47.316;-1.348;2023-07-31T02:19:50;18.40;99.90
4687;DHT22;2357;47.316;-1.348;2023-07-31T02:22:16;18.40;99.90
4687;DHT22;2357;47.316;-1.348;2023-07-31T02:24:41;18.50;99.90
4687;DHT22;2357;47.316;-1.348;2023-07-31T02:27:07;18.50;99.90
4687;DHT22;2357;47.316;-1.348;2023-07-31T02:29:32;18.60;99.90
4687;DHT22;2357;47.316;-1.348;2023-07-31T02:31:58;18.60;99.90
4687;DHT22;2357;47.316;-1.348;2023-07-31T02:34:24;18.50;99.90
4687;DHT22;2357;47.316;-1.348;2023-07-31T02:36:49;18.50;99.90
4687;DHT22;2357;47.316;-1.348;2023-07-31T02:39:15;18.40;99.90
4687;DHT22;2357;47.316;-1.348;2023-07-31T02:41:41;18.40;99.90
4687;DHT22;2357;47.316;-1.348;2023-07-31T02:44:07;18.40;99.90
4687;DHT22;2357;47.316;-1.348;2023-07-31T02:46:32;18.30;99.90
4687;DHT22;2357;47.316;-1.348;2023-07-31T02:48:58;18.40;99.90
4687;DHT22;2357;47.316;-1.348;2023-07-31T02:51:23;18.40;99.90
4687;DHT22;2357;47.316;-1.348;2023-07-31T02:53:49;18.40;99.90
4687;DHT22;2357;47.316;-1.348;2023-07-31T02:56:15;18.50;99.90
4687;DHT22;2357;47.316;-1.348;2023-07-31T02:58:40;18.40;99.90
4687;DHT22;2357;47.316;-1.348;2023-07-31T03:01:06;18.50;99.90
4687;DHT22;2357;47.316;-1.348;2023-07-31T03:03:31;18.40;99.90
4687;DHT22;2357;47.316;-1.348;2023-07-31T03:05:57;18.40;99.90
4687;DHT22;2357;47.316;-1.348;2023-07-31T03:08:23;18.30;99.90
4687;DHT22;2357;47.316;-1.348;2023-07-31T03:10:48;18.40;99.90
4687;DHT22;2357;47.316;-1.348;2023-07-31T03:13:14;18.30;99.90
4687;DHT22;2357;47.316;-1.348;2023-07-31T03:15:42;18.30;99.90
4687;DHT22;2357;47.316;-1.348;2023-07-31T03:18:08;18.30;99.90
4687;DHT22;2357;47.316;-1.348;2023-07-31T03:20:34;18.30;99.90
4687;DHT22;2357;47.316;-1.348;2023-07-31T03:22:59;18.20;99.90
4687;DHT22;2357;47.316;-1.348;2023-07-31T03:25:25;18.20;99.90
4687;DHT22;2357;47.316;-1.348;2023-07-31T03:27:50;18.20;99.90
4687;DHT22;2357;47.316;-1.348;2023-07-31T03:30:16;18.10;99.90
4687;DHT22;2357;47.316;-1.348;2023-07-31T03:32:42;18.10;99.90
4687;DHT22;2357;47.316;-1.348;2023-07-31T03:35:08;18.00;99.90
4687;DHT22;2357;47.316;-1.348;2023-07-31T03:37:33;18.00;99.90
4687;DHT22;2357;47.316;-1.348;2023-07-31T03:39:59;18.00;99.90
4687;DHT22;2357;47.316;-1.348;2023-07-31T03:42:25;18.00;99.90
4687;DHT22;2357;47.316;-1.348;2023-07-31T03:44:50;17.90;99.90
4687;DHT22;2357;47.316;-1.348;2023-07-31T03:47:16;17.90;99.90
4687;DHT22;2357;47.316;-1.348;2023-07-31T03:49:41;17.90;99.90
4687;DHT22;2357;47.316;-1.348;2023-07-31T03:52:07;17.90;99.90
4687;DHT22;2357;47.316;-1.348;2023-07-31T03:54:33;17.90;99.90
4687;DHT22;2357;47.316;-1.348;2023-07-31T03:56:58;17.90;99.90
4687;DHT22;2357;47.316;-1.348;2023-07-31T03:59:24;17.90;99.90
4687;DHT22;2357;47.316;-1.348;2023-07-31T04:01:49;17.80;99.90
4687;DHT22;2357;47.316;-1.348;2023-07-31T04:04:15;17.80;99.90
4687;DHT22;2357;47.316;-1.348;2023-07-31T04:06:41;17.80;99.90
4687;DHT22;2357;47.316;-1.348;2023-07-31T04:09:06;17.80;99.90
4687;DHT22;2357;47.316;-1.348;2023-07-31T04:11:32;17.90;99.90
4687;DHT22;2357;47.316;-1.348;2023-07-31T04:13:57;17.90;99.90
4687;DHT22;2357;47.316;-1.348;2023-07-31T04:16:23;17.80;99.90
4687;DHT22;2357;47.316;-1.348;2023-07-31T04:18:49;17.90;99.90
4687;DHT22;2357;47.316;-1.348;2023-07-31T04:21:14;17.80;99.90
4687;DHT22;2357;47.316;-1.348;2023-07-31T04:23:40;17.90;99.90
4687;DHT22;2357;47.316;-1.348;2023-07-31T04:26:05;17.90;99.90
4687;DHT22;2357;47.316;-1.348;2023-07-31T04:28:31;17.90;99.90
4687;DHT22;2357;47.316;-1.348;2023-07-31T04:30:57;17.90;99.90
4687;DHT22;2357;47.316;-1.348;2023-07-31T04:33:23;18.00;99.90
4687;DHT22;2357;47.316;-1.348;2023-07-31T04:35:51;18.00;99.90
4687;DHT22;2357;47.316;-1.348;2023-07-31T04:38:21;17.90;99.90
4687;DHT22;2357;47.316;-1.348;2023-07-31T04:40:47;17.90;99.90
4687;DHT22;2357;47.316;-1.348;2023-07-31T04:43:12;17.80;99.90
4687;DHT22;2357;47.316;-1.348;2023-07-31T04:45:38;17.90;99.90
4687;DHT22;2357;47.316;-1.348;2023-07-31T04:48:04;17.90;99.90
4687;DHT22;2357;47.316;-1.348;2023-07-31T04:50:29;17.90;99.90
4687;DHT22;2357;47.316;-1.348;2023-07-31T04:52:56;17.80;99.90
4687;DHT22;2357;47.316;-1.348;2023-07-31T04:55:22;17.80;99.90
4687;DHT22;2357;47.316;-1.348;2023-07-31T04:57:47;17.90;99.90
4687;DHT22;2357;47.316;-1.348;2023-07-31T05:00:13;17.80;99.90
4687;DHT22;2357;47.316;-1.348;2023-07-31T05:02:39;17.80;99.90
4687;DHT22;2357;47.316;-1.348;2023-07-31T05:05:05;17.80;99.90
4687;DHT22;2357;47.316;-1.348;2023-07-31T05:07:30;17.80;99.90
4687;DHT22;2357;47.316;-1.348;2023-07-31T05:09:56;17.80;99.90
4687;DHT22;2357;47.316;-1.348;2023-07-31T05:12:21;17.80;99.90
4687;DHT22;2357;47.316;-1.348;2023-07-31T05:14:47;17.70;99.90
4687;DHT22;2357;47.316;-1.348;2023-07-31T05:17:13;17.80;99.90
4687;DHT22;2357;47.316;-1.348;2023-07-31T05:19:38;17.70;99.90
4687;DHT22;2357;47.316;-1.348;2023-07-31T05:22:04;17.70;99.90
4687;DHT22;2357;47.316;-1.348;2023-07-31T05:24:30;17.70;99.90
4687;DHT22;2357;47.316;-1.348;2023-07-31T05:26:55;17.80;99.90
4687;DHT22;2357;47.316;-1.348;2023-07-31T05:29:21;17.70;99.90
4687;DHT22;2357;47.316;-1.348;2023-07-31T05:31:46;17.80;99.90
4687;DHT22;2357;47.316;-1.348;2023-07-31T05:34:12;17.80;99.90
4687;DHT22;2357;47.316;-1.348;2023-07-31T05:36:38;17.80;99.90
4687;DHT22;2357;47.316;-1.348;2023-07-31T05:39:03;17.80;99.90
4687;DHT22;2357;47.316;-1.348;2023-07-31T05:41:32;17.90;99.90
4687;DHT22;2357;47.316;-1.348;2023-07-31T05:43:58;17.90;99.90
4687;DHT22;2357;47.316;-1.348;2023-07-31T05:46:23;17.90;99.90
4687;DHT22;2357;47.316;-1.348;2023-07-31T05:48:49;17.90;99.90
4687;DHT22;2357;47.316;-1.348;2023-07-31T05:51:14;18.10;99.90
4687;DHT22;2357;47.316;-1.348;2023-07-31T05:53:40;18.20;99.90
4687;DHT22;2357;47.316;-1.348;2023-07-31T05:56:06;18.30;99.90
4687;DHT22;2357;47.316;-1.348;2023-07-31T05:58:32;18.30;99.90
4687;DHT22;2357;47.316;-1.348;2023-07-31T06:00:57;18.40;99.90
4687;DHT22;2357;47.316;-1.348;2023-07-31T06:03:23;18.40;99.90
4687;DHT22;2357;47.316;-1.348;2023-07-31T06:05:48;18.50;99.90
4687;DHT22;2357;47.316;-1.348;2023-07-31T06:08:14;18.60;99.90
4687;DHT22;2357;47.316;-1.348;2023-07-31T06:10:40;18.60;99.90
4687;DHT22;2357;47.316;-1.348;2023-07-31T06:13:05;18.60;99.90
4687;DHT22;2357;47.316;-1.348;2023-07-31T06:15:31;18.70;99.90
4687;DHT22;2357;47.316;-1.348;2023-07-31T06:17:56;18.80;99.90
4687;DHT22;2357;47.316;-1.348;2023-07-31T06:20:23;18.70;99.90
4687;DHT22;2357;47.316;-1.348;2023-07-31T06:22:48;18.80;99.90
4687;DHT22;2357;47.316;-1.348;2023-07-31T06:25:14;18.80;99.90
4687;DHT22;2357;47.316;-1.348;2023-07-31T06:27:39;18.90;99.90
4687;DHT22;2357;47.316;-1.348;2023-07-31T06:30:06;19.00;99.90
4687;DHT22;2357;47.316;-1.348;2023-07-31T06:32:32;19.10;99.90
4687;DHT22;2357;47.316;-1.348;2023-07-31T06:34:57;19.10;99.90
4687;DHT22;2357;47.316;-1.348;2023-07-31T06:37:23;19.30;99.90
4687;DHT22;2357;47.316;-1.348;2023-07-31T06:39:49;19.30;99.90
4687;DHT22;2357;47.316;-1.348;2023-07-31T06:42:14;19.30;99.90
4687;DHT22;2357;47.316;-1.348;2023-07-31T06:44:40;19.20;99.90
4687;DHT22;2357;47.316;-1.348;2023-07-31T06:47:08;19.20;99.90
4687;DHT22;2357;47.316;-1.348;2023-07-31T06:49:34;19.10;99.90
4687;DHT22;2357;47.316;-1.348;2023-07-31T06:52:00;19.10;99.90
4687;DHT22;2357;47.316;-1.348;2023-07-31T06:54:25;19.20;99.90
4687;DHT22;2357;47.316;-1.348;2023-07-31T06:56:51;19.30;99.90
4687;DHT22;2357;47.316;-1.348;2023-07-31T06:59:16;19.30;99.90
4687;DHT22;2357;47.316;-1.348;2023-07-31T07:01:42;19.30;99.90
4687;DHT22;2357;47.316;-1.348;2023-07-31T07:04:08;19.30;99.90
4687;DHT22;2357;47.316;-1.348;2023-07-31T07:06:33;19.20;99.90
4687;DHT22;2357;47.316;-1.348;2023-07-31T07:08:59;19.30;99.90
4687;DHT22;2357;47.316;-1.348;2023-07-31T07:11:24;19.30;99.90
4687;DHT22;2357;47.316;-1.348;2023-07-31T07:13:51;19.30;99.90
4687;DHT22;2357;47.316;-1.348;2023-07-31T07:16:16;19.40;99.90
4687;DHT22;2357;47.316;-1.348;2023-07-31T07:18:42;19.40;99.90
4687;DHT22;2357;47.316;-1.348;2023-07-31T07:21:08;19.50;99.90
4687;DHT22;2357;47.316;-1.348;2023-07-31T07:23:33;19.50;99.90
4687;DHT22;2357;47.316;-1.348;2023-07-31T07:25:59;19.50;99.90
4687;DHT22;2357;47.316;-1.348;2023-07-31T07:28:25;19.50;99.90
4687;DHT22;2357;47.316;-1.348;2023-07-31T07:30:53;19.50;99.90
4687;DHT22;2357;47.316;-1.348;2023-07-31T07:33:19;19.50;99.90
4687;DHT22;2357;47.316;-1.348;2023-07-31T07:35:45;19.60;99.90
4687;DHT22;2357;47.316;-1.348;2023-07-31T07:38:10;19.50;99.90
4687;DHT22;2357;47.316;-1.348;2023-07-31T07:40:39;19.70;99.90
4687;DHT22;2357;47.316;-1.348;2023-07-31T07:43:05;19.70;99.90
4687;DHT22;2357;47.316;-1.348;2023-07-31T07:45:31;19.70;99.90
4687;DHT22;2357;47.316;-1.348;2023-07-31T07:47:56;19.80;99.90
4687;DHT22;2357;47.316;-1.348;2023-07-31T07:50:23;19.90;99.90
4687;DHT22;2357;47.316;-1.348;2023-07-31T07:52:48;19.90;99.90
4687;DHT22;2357;47.316;-1.348;2023-07-31T07:55:14;19.90;99.90
4687;DHT22;2357;47.316;-1.348;2023-07-31T07:57:40;20.00;99.90
4687;DHT22;2357;47.316;-1.348;2023-07-31T08:00:06;20.00;99.90
4687;DHT22;2357;47.316;-1.348;2023-07-31T08:02:31;20.00;99.90
4687;DHT22;2357;47.316;-1.348;2023-07-31T08:04:57;20.00;99.90
4687;DHT22;2357;47.316;-1.348;2023-07-31T08:07:23;19.90;99.90
4687;DHT22;2357;47.316;-1.348;2023-07-31T08:09:48;19.90;99.90
4687;DHT22;2357;47.316;-1.348;2023-07-31T08:12:14;19.90;99.90
4687;DHT22;2357;47.316;-1.348;2023-07-31T08:14:40;20.00;99.90
4687;DHT22;2357;47.316;-1.348;2023-07-31T08:17:05;20.20;99.90
4687;DHT22;2357;47.316;-1.348;2023-07-31T08:19:31;20.20;99.90
4687;DHT22;2357;47.316;-1.348;2023-07-31T08:21:56;20.40;99.90
4687;DHT22;2357;47.316;-1.348;2023-07-31T08:24:22;20.40;99.90
4687;DHT22;2357;47.316;-1.348;2023-07-31T08:26:48;20.40;99.90
4687;DHT22;2357;47.316;-1.348;2023-07-31T08:29:13;20.50;99.90
4687;DHT22;2357;47.316;-1.348;2023-07-31T08:31:39;20.70;99.90
4687;DHT22;2357;47.316;-1.348;2023-07-31T08:34:05;20.70;99.90
4687;DHT22;2357;47.316;-1.348;2023-07-31T08:36:31;20.70;99.90
4687;DHT22;2357;47.316;-1.348;2023-07-31T08:38:56;20.80;99.90
4687;DHT22;2357;47.316;-1.348;2023-07-31T08:41:22;20.80;99.90
4687;DHT22;2357;47.316;-1.348;2023-07-31T08:43:49;21.00;99.90
4687;DHT22;2357;47.316;-1.348;2023-07-31T08:46:15;21.10;99.90
4687;DHT22;2357;47.316;-1.348;2023-07-31T08:48:42;21.10;99.90
4687;DHT22;2357;47.316;-1.348;2023-07-31T08:51:08;21.00;99.90
4687;DHT22;2357;47.316;-1.348;2023-07-31T08:53:34;21.10;99.90
4687;DHT22;2357;47.316;-1.348;2023-07-31T08:56:00;21.40;99.90
4687;DHT22;2357;47.316;-1.348;2023-07-31T08:58:31;21.70;99.90
4687;DHT22;2357;47.316;-1.348;2023-07-31T09:01:01;21.80;99.90
4687;DHT22;2357;47.316;-1.348;2023-07-31T09:03:33;21.60;99.90
4687;DHT22;2357;47.316;-1.348;2023-07-31T09:05:59;21.70;99.90
4687;DHT22;2357;47.316;-1.348;2023-07-31T09:08:26;21.80;99.90
4687;DHT22;2357;47.316;-1.348;2023-07-31T09:10:59;21.80;99.90
4687;DHT22;2357;47.316;-1.348;2023-07-31T09:13:25;21.70;99.90
4687;DHT22;2357;47.316;-1.348;2023-07-31T09:15:52;21.60;99.90
4687;DHT22;2357;47.316;-1.348;2023-07-31T09:18:18;21.50;99.90
4687;DHT22;2357;47.316;-1.348;2023-07-31T09:21:05;21.40;99.90
4687;DHT22;2357;47.316;-1.348;2023-07-31T09:23:45;21.30;99.90
4687;DHT22;2357;47.316;-1.348;2023-07-31T09:26:11;21.60;99.90
4687;DHT22;2357;47.316;-1.348;2023-07-31T09:28:53;21.80;99.90
4687;DHT22;2357;47.316;-1.348;2023-07-31T09:31:40;21.90;99.90
4687;DHT22;2357;47.316;-1.348;2023-07-31T09:34:07;22.00;99.90
4687;DHT22;2357;47.316;-1.348;2023-07-31T09:36:33;22.10;99.90
4687;DHT22;2357;47.316;-1.348;2023-07-31T09:39:04;22.20;99.90
4687;DHT22;2357;47.316;-1.348;2023-07-31T09:41:31;22.20;99.90
4687;DHT22;2357;47.316;-1.348;2023-07-31T09:43:56;22.30;99.90
4687;DHT22;2357;47.316;-1.348;2023-07-31T09:46:22;22.40;99.90
4687;DHT22;2357;47.316;-1.348;2023-07-31T09:48:48;22.30;99.90
4687;DHT22;2357;47.316;-1.348;2023-07-31T09:51:13;22.40;99.90
4687;DHT22;2357;47.316;-1.348;2023-07-31T09:53:39;22.30;99.90
4687;DHT22;2357;47.316;-1.348;2023-07-31T09:56:05;22.30;99.90
4687;DHT22;2357;47.316;-1.348;2023-07-31T09:58:33;22.30;99.90
4687;DHT22;2357;47.316;-1.348;2023-07-31T10:01:00;22.20;99.90
4687;DHT22;2357;47.316;-1.348;2023-07-31T10:03:27;22.10;99.90
4687;DHT22;2357;47.316;-1.348;2023-07-31T10:05:57;22.00;99.90
4687;DHT22;2357;47.316;-1.348;2023-07-31T10:08:27;22.10;99.90
4687;DHT22;2357;47.316;-1.348;2023-07-31T10:10:59;22.10;99.90
4687;DHT22;2357;47.316;-1.348;2023-07-31T10:13:28;22.40;99.90
4687;DHT22;2357;47.316;-1.348;2023-07-31T10:15:54;22.30;99.90
4687;DHT22;2357;47.316;-1.348;2023-07-31T10:18:23;22.20;99.90
4687;DHT22;2357;47.316;-1.348;2023-07-31T10:20:50;22.30;99.90
4687;DHT22;2357;47.316;-1.348;2023-07-31T10:23:16;22.30;99.90
4687;DHT22;2357;47.316;-1.348;2023-07-31T10:25:42;22.20;99.90
4687;DHT22;2357;47.316;-1.348;2023-07-31T10:28:08;22.20;99.90
4687;DHT22;2357;47.316;-1.348;2023-07-31T10:30:34;22.30;99.90
4687;DHT22;2357;47.316;-1.348;2023-07-31T10:33:03;22.20;99.90
4687;DHT22;2357;47.316;-1.348;2023-07-31T10:35:32;22.30;99.90
4687;DHT22;2357;47.316;-1.348;2023-07-31T10:38:10;22.30;99.90
4687;DHT22;2357;47.316;-1.348;2023-07-31T10:40:37;22.30;99.90
4687;DHT22;2357;47.316;-1.348;2023-07-31T10:43:03;22.60;99.90
4687;DHT22;2357;47.316;-1.348;2023-07-31T10:45:35;22.70;99.90
4687;DHT22;2357;47.316;-1.348;2023-07-31T10:48:12;22.60;99.90
4687;DHT22;2357;47.316;-1.348;2023-07-31T10:50:46;22.20;99.90
4687;DHT22;2357;47.316;-1.348;2023-07-31T10:53:26;22.00;99.90
4687;DHT22;2357;47.316;-1.348;2023-07-31T10:55:52;21.90;99.90
4687;DHT22;2357;47.316;-1.348;2023-07-31T10:58:19;21.90;99.90
4687;DHT22;2357;47.316;-1.348;2023-07-31T11:00:46;21.90;99.90
4687;DHT22;2357;47.316;-1.348;2023-07-31T11:03:17;21.80;99.90
4687;DHT22;2357;47.316;-1.348;2023-07-31T11:05:46;21.70;99.90
4687;DHT22;2357;47.316;-1.348;2023-07-31T11:08:20;21.70;99.90
4687;DHT22;2357;47.316;-1.348;2023-07-31T11:10:47;21.70;99.90
4687;DHT22;2357;47.316;-1.348;2023-07-31T11:13:14;21.90;99.90
4687;DHT22;2357;47.316;-1.348;2023-07-31T11:15:40;22.20;99.90
4687;DHT22;2357;47.316;-1.348;2023-07-31T11:18:05;22.60;99.90
4687;DHT22;2357;47.316;-1.348;2023-07-31T11:20:34;22.90;99.90
4687;DHT22;2357;47.316;-1.348;2023-07-31T11:23:05;23.20;99.90
4687;DHT22;2357;47.316;-1.348;2023-07-31T11:25:32;23.40;99.90
4687;DHT22;2357;47.316;-1.348;2023-07-31T11:28:12;23.20;99.90
4687;DHT22;2357;47.316;-1.348;2023-07-31T11:30:39;23.10;99.90
4687;DHT22;2357;47.316;-1.348;2023-07-31T11:33:06;22.70;99.90
4687;DHT22;2357;47.316;-1.348;2023-07-31T11:35:34;22.10;99.90
4687;DHT22;2357;47.316;-1.348;2023-07-31T11:38:00;21.90;99.90
4687;DHT22;2357;47.316;-1.348;2023-07-31T11:40:26;21.90;99.90
4687;DHT22;2357;47.316;-1.348;2023-07-31T11:42:58;21.90;99.90
4687;DHT22;2357;47.316;-1.348;2023-07-31T11:45:27;21.80;99.90
4687;DHT22;2357;47.316;-1.348;2023-07-31T11:47:56;22.00;99.90
4687;DHT22;2357;47.316;-1.348;2023-07-31T11:50:23;22.10;99.90
4687;DHT22;2357;47.316;-1.348;2023-07-31T11:52:54;22.10;99.90
4687;DHT22;2357;47.316;-1.348;2023-07-31T11:55:21;22.20;99.90
4687;DHT22;2357;47.316;-1.348;2023-07-31T11:57:47;22.30;99.90
4687;DHT22;2357;47.316;-1.348;2023-07-31T12:00:14;22.40;99.90
4687;DHT22;2357;47.316;-1.348;2023-07-31T12:02:40;22.30;99.90
4687;DHT22;2357;47.316;-1.348;2023-07-31T12:05:13;22.50;99.90
4687;DHT22;2357;47.316;-1.348;2023-07-31T12:07:54;22.50;99.90
4687;DHT22;2357;47.316;-1.348;2023-07-31T12:10:31;22.50;99.90
4687;DHT22;2357;47.316;-1.348;2023-07-31T12:18:07;22.10;99.90
4687;DHT22;2357;47.316;-1.348;2023-07-31T12:20:33;22.00;99.90
4687;DHT22;2357;47.316;-1.348;2023-07-31T12:22:59;22.20;99.90
4687;DHT22;2357;47.316;-1.348;2023-07-31T12:25:32;22.40;99.90
4687;DHT22;2357;47.316;-1.348;2023-07-31T12:28:03;22.40;99.90
4687;DHT22;2357;47.316;-1.348;2023-07-31T12:30:34;22.40;99.90
4687;DHT22;2357;47.316;-1.348;2023-07-31T12:33:18;22.30;99.90
4687;DHT22;2357;47.316;-1.348;2023-07-31T12:35:46;22.20;99.90
4687;DHT22;2357;47.316;-1.348;2023-07-31T12:38:13;22.10;99.90
4687;DHT22;2357;47.316;-1.348;2023-07-31T12:40:40;22.20;99.90
4687;DHT22;2357;47.316;-1.348;2023-07-31T12:43:06;22.30;99.90
4687;DHT22;2357;47.316;-1.348;2023-07-31T12:45:32;22.40;99.90
4687;DHT22;2357;47.316;-1.348;2023-07-31T12:47:59;22.40;99.90
4687;DHT22;2357;47.316;-1.348;2023-07-31T12:50:25;22.40;99.90
4687;DHT22;2357;47.316;-1.348;2023-07-31T12:52:53;22.40;99.90
4687;DHT22;2357;47.316;-1.348;2023-07-31T12:55:18;22.30;99.90
4687;DHT22;2357;47.316;-1.348;2023-07-31T12:57:44;22.30;99.90
4687;DHT22;2357;47.316;-1.348;2023-07-31T13:00:10;22.20;99.90
4687;DHT22;2357;47.316;-1.348;2023-07-31T13:02:36;22.20;99.90
4687;DHT22;2357;47.316;-1.348;2023-07-31T13:05:02;22.60;99.90
4687;DHT22;2357;47.316;-1.348;2023-07-31T13:07:28;23.10;99.90
4687;DHT22;2357;47.316;-1.348;2023-07-31T13:09:53;23.50;99.90
4687;DHT22;2357;47.316;-1.348;2023-07-31T13:12:19;23.60;99.90
4687;DHT22;2357;47.316;-1.348;2023-07-31T13:14:45;23.20;99.90
4687;DHT22;2357;47.316;-1.348;2023-07-31T13:17:11;23.00;99.90
4687;DHT22;2357;47.316;-1.348;2023-07-31T13:19:36;22.80;99.90
4687;DHT22;2357;47.316;-1.348;2023-07-31T13:22:02;22.60;99.90
4687;DHT22;2357;47.316;-1.348;2023-07-31T13:24:27;22.60;99.90
4687;DHT22;2357;47.316;-1.348;2023-07-31T13:26:55;22.50;99.90
4687;DHT22;2357;47.316;-1.348;2023-07-31T13:29:20;22.60;99.90
4687;DHT22;2357;47.316;-1.348;2023-07-31T13:31:47;22.50;99.90
4687;DHT22;2357;47.316;-1.348;2023-07-31T13:34:13;22.30;99.90
4687;DHT22;2357;47.316;-1.348;2023-07-31T13:36:38;22.10;99.90
4687;DHT22;2357;47.316;-1.348;2023-07-31T13:39:04;22.10;99.90
4687;DHT22;2357;47.316;-1.348;2023-07-31T13:41:29;21.80;99.90
4687;DHT22;2357;47.316;-1.348;2023-07-31T13:43:55;22.00;99.90
4687;DHT22;2357;47.316;-1.348;2023-07-31T13:46:21;22.00;99.90
4687;DHT22;2357;47.316;-1.348;2023-07-31T13:48:46;22.30;99.90
4687;DHT22;2357;47.316;-1.348;2023-07-31T13:51:12;22.50;99.90
4687;DHT22;2357;47.316;-1.348;2023-07-31T13:53:38;22.90;99.90
4687;DHT22;2357;47.316;-1.348;2023-07-31T13:56:03;22.90;99.90
4687;DHT22;2357;47.316;-1.348;2023-07-31T13:58:29;22.70;99.90
4687;DHT22;2357;47.316;-1.348;2023-07-31T14:00:55;22.70;99.90
4687;DHT22;2357;47.316;-1.348;2023-07-31T14:03:20;22.70;99.90
4687;DHT22;2357;47.316;-1.348;2023-07-31T14:05:46;22.90;99.90
4687;DHT22;2357;47.316;-1.348;2023-07-31T14:08:11;22.80;99.90
4687;DHT22;2357;47.316;-1.348;2023-07-31T14:10:37;22.90;99.90
4687;DHT22;2357;47.316;-1.348;2023-07-31T14:13:03;22.80;99.90
4687;DHT22;2357;47.316;-1.348;2023-07-31T14:15:28;22.70;99.90
4687;DHT22;2357;47.316;-1.348;2023-07-31T14:17:54;22.70;99.90
4687;DHT22;2357;47.316;-1.348;2023-07-31T14:20:19;22.70;99.90
4687;DHT22;2357;47.316;-1.348;2023-07-31T14:22:45;22.80;99.90
4687;DHT22;2357;47.316;-1.348;2023-07-31T14:25:11;22.80;99.90
4687;DHT22;2357;47.316;-1.348;2023-07-31T14:27:36;22.80;99.90
4687;DHT22;2357;47.316;-1.348;2023-07-31T14:30:03;22.80;99.90
4687;DHT22;2357;47.316;-1.348;2023-07-31T14:32:29;22.90;99.90
4687;DHT22;2357;47.316;-1.348;2023-07-31T14:34:54;22.60;99.90
4687;DHT22;2357;47.316;-1.348;2023-07-31T14:37:20;22.50;99.90
4687;DHT22;2357;47.316;-1.348;2023-07-31T14:39:46;22.50;99.90
4687;DHT22;2357;47.316;-1.348;2023-07-31T14:42:12;22.80;99.90
4687;DHT22;2357;47.316;-1.348;2023-07-31T14:44:38;22.90;99.90
4687;DHT22;2357;47.316;-1.348;2023-07-31T14:47:03;22.90;99.90
4687;DHT22;2357;47.316;-1.348;2023-07-31T14:49:29;22.70;99.90
4687;DHT22;2357;47.316;-1.348;2023-07-31T14:51:55;22.70;99.90
4687;DHT22;2357;47.316;-1.348;2023-07-31T14:54:21;22.60;99.90
4687;DHT22;2357;47.316;-1.348;2023-07-31T14:56:46;22.80;99.90
4687;DHT22;2357;47.316;-1.348;2023-07-31T14:59:12;22.80;99.90
4687;DHT22;2357;47.316;-1.348;2023-07-31T15:01:38;22.80;99.90
4687;DHT22;2357;47.316;-1.348;2023-07-31T15:04:03;22.60;99.90
4687;DHT22;2357;47.316;-1.348;2023-07-31T15:06:29;22.70;99.90
4687;DHT22;2357;47.316;-1.348;2023-07-31T15:08:55;22.60;99.90
4687;DHT22;2357;47.316;-1.348;2023-07-31T15:11:20;22.60;99.90
4687;DHT22;2357;47.316;-1.348;2023-07-31T15:13:46;22.60;99.90
4687;DHT22;2357;47.316;-1.348;2023-07-31T15:16:12;22.70;99.90
4687;DHT22;2357;47.316;-1.348;2023-07-31T15:18:38;22.60;99.90
4687;DHT22;2357;47.316;-1.348;2023-07-31T15:21:03;22.80;99.90
4687;DHT22;2357;47.316;-1.348;2023-07-31T15:23:31;22.60;99.90
4687;DHT22;2357;47.316;-1.348;2023-07-31T15:25:56;22.70;99.90
4687;DHT22;2357;47.316;-1.348;2023-07-31T15:28:22;22.60;99.90
4687;DHT22;2357;47.316;-1.348;2023-07-31T15:30:48;22.60;99.90
4687;DHT22;2357;47.316;-1.348;2023-07-31T15:33:14;22.60;99.90
4687;DHT22;2357;47.316;-1.348;2023-07-31T15:35:40;22.40;99.90
4687;DHT22;2357;47.316;-1.348;2023-07-31T15:38:06;22.40;99.90
4687;DHT22;2357;47.316;-1.348;2023-07-31T15:40:31;22.30;99.90
4687;DHT22;2357;47.316;-1.348;2023-07-31T15:42:57;22.20;99.90
4687;DHT22;2357;47.316;-1.348;2023-07-31T15:45:23;22.30;99.90
4687;DHT22;2357;47.316;-1.348;2023-07-31T15:47:48;22.20;99.90
4687;DHT22;2357;47.316;-1.348;2023-07-31T15:50:14;22.00;99.90
4687;DHT22;2357;47.316;-1.348;2023-07-31T15:52:39;22.00;99.90
4687;DHT22;2357;47.316;-1.348;2023-07-31T15:55:05;21.90;99.90